EFW8MJ LEAS-EGKK
Flight info
| Callsign | EFW8MJ |
|---|---|
| Flight time | N/A |
| Altitude | 24000 |
| Route | MAVOS1N MAVOS M30 LOTEE/N0455F360 DCT NOVAN DCT OZNOH DCT UPALO UP87 REVTU/N0439F340 UP88 VASUX VASUX1G |
| Aircraft | A321/M-SDE3FGIJ1KRWXY/SB1 |
Departure
| Time | 2026-05-04 19:24 |
|---|---|
| Airport | Asturias Airport (LEAS) |
Arrival
| Time | N/A |
|---|---|
| Airport | London Gatwick Airport (EGKK) |
| Time | Latitude | Longitude | Altitude | Speed | Heading |
|---|---|---|---|---|---|
| 2026-05-04 19:16 | 43.56032 | -6.03342 | 421 ft | 0 kts | 198° |
| 2026-05-04 19:21 | 43.56027 | -6.03345 | 421 ft | 6 kts | 208° |
| 2026-05-04 19:21 | 43.56055 | -6.03365 | 415 ft | 12 kts | 58° |
| 2026-05-04 19:21 | 43.56079 | -6.03246 | 416 ft | 12 kts | 66° |
| 2026-05-04 19:22 | 43.56115 | -6.03144 | 421 ft | 13 kts | 112° |
| 2026-05-04 19:22 | 43.56084 | -6.03018 | 419 ft | 15 kts | 108° |
| 2026-05-04 19:22 | 43.56052 | -6.02875 | 421 ft | 16 kts | 107° |
| 2026-05-04 19:22 | 43.56016 | -6.02721 | 418 ft | 17 kts | 109° |
| 2026-05-04 19:23 | 43.55976 | -6.02558 | 419 ft | 18 kts | 108° |
| 2026-05-04 19:23 | 43.55939 | -6.02391 | 421 ft | 16 kts | 88° |
| 2026-05-04 19:23 | 43.55982 | -6.02252 | 414 ft | 15 kts | 59° |
| 2026-05-04 19:23 | 43.56052 | -6.02198 | 419 ft | 8 kts | 345° |
| 2026-05-04 19:24 | 43.56085 | -6.02316 | 413 ft | 34 kts | 288° |
| 2026-05-04 19:24 | 43.56240 | -6.02969 | 417 ft | 107 kts | 288° |
| 2026-05-04 19:24 | 43.56542 | -6.04210 | 524 ft | 155 kts | 289° |
| 2026-05-04 19:24 | 43.56904 | -6.05604 | 1232 ft | 156 kts | 288° |
| 2026-05-04 19:25 | 43.57258 | -6.07054 | 1841 ft | 166 kts | 285° |
| 2026-05-04 19:25 | 43.57620 | -6.08651 | 2146 ft | 187 kts | 286° |
| 2026-05-04 19:25 | 43.58032 | -6.10457 | 2485 ft | 204 kts | 287° |
| 2026-05-04 19:25 | 43.58469 | -6.12345 | 3084 ft | 209 kts | 287° |
| 2026-05-04 19:26 | 43.58914 | -6.14254 | 3894 ft | 209 kts | 287° |
| 2026-05-04 19:26 | 43.59471 | -6.16117 | 4653 ft | 214 kts | 307° |
| 2026-05-04 19:26 | 43.60716 | -6.17237 | 5336 ft | 223 kts | 347° |
| 2026-05-04 19:26 | 43.62281 | -6.17121 | 6054 ft | 230 kts | 11° |
| 2026-05-04 19:27 | 43.63827 | -6.16481 | 6786 ft | 234 kts | 17° |
| 2026-05-04 19:27 | 43.65382 | -6.15688 | 7306 ft | 247 kts | 18° |
| 2026-05-04 19:27 | 43.67044 | -6.14826 | 7568 ft | 271 kts | 18° |
| 2026-05-04 19:27 | 43.68892 | -6.13893 | 7818 ft | 294 kts | 18° |
| 2026-05-04 19:28 | 43.70901 | -6.12917 | 8013 ft | 318 kts | 17° |
| 2026-05-04 19:28 | 43.73057 | -6.11886 | 8298 ft | 335 kts | 18° |
| 2026-05-04 19:28 | 43.75262 | -6.10718 | 8894 ft | 342 kts | 20° |
| 2026-05-04 19:28 | 43.77475 | -6.09459 | 9577 ft | 346 kts | 21° |
| 2026-05-04 19:29 | 43.79704 | -6.08156 | 10229 ft | 350 kts | 21° |
| 2026-05-04 19:29 | 43.81949 | -6.06842 | 10859 ft | 353 kts | 21° |
| 2026-05-04 19:29 | 43.84202 | -6.05534 | 11461 ft | 357 kts | 21° |
| 2026-05-04 19:29 | 43.86508 | -6.04208 | 12070 ft | 361 kts | 21° |
| 2026-05-04 19:30 | 43.88843 | -6.02879 | 12690 ft | 365 kts | 20° |
| 2026-05-04 19:30 | 43.91202 | -6.01549 | 13303 ft | 369 kts | 20° |
| 2026-05-04 19:30 | 43.93593 | -6.00205 | 13907 ft | 373 kts | 20° |
| 2026-05-04 19:30 | 43.96008 | -5.98843 | 14434 ft | 377 kts | 20° |
| 2026-05-04 19:31 | 43.98447 | -5.97459 | 14987 ft | 381 kts | 20° |
| 2026-05-04 19:31 | 44.00877 | -5.96074 | 15499 ft | 384 kts | 20° |
| 2026-05-04 19:31 | 44.03363 | -5.94659 | 16042 ft | 388 kts | 20° |
| 2026-05-04 19:31 | 44.05931 | -5.93487 | 16548 ft | 390 kts | 10° |
| 2026-05-04 19:32 | 44.08619 | -5.92951 | 17095 ft | 391 kts | 4° |
| 2026-05-04 19:32 | 44.11336 | -5.92521 | 17648 ft | 395 kts | 4° |
| 2026-05-04 19:32 | 44.14078 | -5.92085 | 18179 ft | 398 kts | 4° |
| 2026-05-04 19:32 | 44.16845 | -5.91641 | 18641 ft | 402 kts | 4° |
| 2026-05-04 19:33 | 44.19635 | -5.91190 | 19075 ft | 405 kts | 5° |
| 2026-05-04 19:33 | 44.22449 | -5.90734 | 19511 ft | 409 kts | 5° |
| 2026-05-04 19:33 | 44.25241 | -5.90282 | 19938 ft | 412 kts | 5° |
| 2026-05-04 19:33 | 44.28100 | -5.89818 | 20394 ft | 415 kts | 5° |
| 2026-05-04 19:34 | 44.30981 | -5.89348 | 20843 ft | 418 kts | 5° |
| 2026-05-04 19:34 | 44.33873 | -5.88877 | 21272 ft | 421 kts | 6° |
| 2026-05-04 19:34 | 44.36791 | -5.88400 | 21694 ft | 424 kts | 6° |
| 2026-05-04 19:34 | 44.39732 | -5.87920 | 22106 ft | 427 kts | 6° |
| 2026-05-04 19:35 | 44.42696 | -5.87437 | 22525 ft | 430 kts | 6° |
| 2026-05-04 19:35 | 44.45643 | -5.86958 | 22931 ft | 434 kts | 6° |
| 2026-05-04 19:35 | 44.48653 | -5.86473 | 23344 ft | 437 kts | 6° |
| 2026-05-04 19:35 | 44.51681 | -5.85989 | 23733 ft | 440 kts | 6° |
| 2026-05-04 19:36 | 44.54732 | -5.85498 | 24086 ft | 442 kts | 6° |
| 2026-05-04 19:36 | 44.57797 | -5.85000 | 24452 ft | 444 kts | 6° |
| 2026-05-04 19:36 | 44.60875 | -5.84492 | 24829 ft | 446 kts | 7° |
| 2026-05-04 19:36 | 44.63913 | -5.83571 | 25182 ft | 448 kts | 18° |
| 2026-05-04 19:37 | 44.66780 | -5.81845 | 25533 ft | 450 kts | 30° |
| 2026-05-04 19:37 | 44.69366 | -5.79374 | 25881 ft | 450 kts | 41° |
| 2026-05-04 19:37 | 44.71697 | -5.76508 | 26218 ft | 452 kts | 42° |
| 2026-05-04 19:37 | 44.74058 | -5.73584 | 26556 ft | 454 kts | 42° |
| 2026-05-04 19:38 | 44.76435 | -5.70641 | 26878 ft | 456 kts | 42° |
| 2026-05-04 19:38 | 44.78824 | -5.67680 | 27196 ft | 459 kts | 42° |
| 2026-05-04 19:38 | 44.81224 | -5.64701 | 27524 ft | 461 kts | 42° |
| 2026-05-04 19:38 | 44.83633 | -5.61706 | 27854 ft | 463 kts | 42° |
| 2026-05-04 19:39 | 44.86050 | -5.58694 | 28185 ft | 465 kts | 42° |
| 2026-05-04 19:39 | 44.88475 | -5.55672 | 28523 ft | 466 kts | 42° |
| 2026-05-04 19:39 | 44.90875 | -5.52684 | 28856 ft | 467 kts | 42° |
| 2026-05-04 19:39 | 44.93314 | -5.49641 | 29155 ft | 469 kts | 42° |
| 2026-05-04 19:40 | 44.95760 | -5.46585 | 29410 ft | 470 kts | 42° |
| 2026-05-04 19:40 | 44.98213 | -5.43516 | 29689 ft | 472 kts | 42° |
| 2026-05-04 19:40 | 45.00670 | -5.40436 | 29951 ft | 473 kts | 42° |
| 2026-05-04 19:40 | 45.03128 | -5.37352 | 30254 ft | 472 kts | 42° |
| 2026-05-04 19:41 | 45.05584 | -5.34269 | 30501 ft | 472 kts | 42° |
| 2026-05-04 19:41 | 45.08043 | -5.31181 | 30739 ft | 473 kts | 43° |
| 2026-05-04 19:41 | 45.10500 | -5.28088 | 30997 ft | 473 kts | 43° |
| 2026-05-04 19:41 | 45.12921 | -5.25029 | 31242 ft | 473 kts | 43° |
| 2026-05-04 19:42 | 45.15375 | -5.21925 | 31490 ft | 473 kts | 43° |
| 2026-05-04 19:42 | 45.17831 | -5.18818 | 31723 ft | 473 kts | 43° |
| 2026-05-04 19:42 | 45.20282 | -5.15713 | 31959 ft | 474 kts | 43° |
| 2026-05-04 19:42 | 45.22740 | -5.12598 | 32195 ft | 474 kts | 43° |
| 2026-05-04 19:43 | 45.25200 | -5.09479 | 32431 ft | 474 kts | 43° |
| 2026-05-04 19:43 | 45.27659 | -5.06356 | 32663 ft | 474 kts | 43° |
| 2026-05-04 19:43 | 45.30117 | -5.03232 | 32909 ft | 474 kts | 43° |
| 2026-05-04 19:43 | 45.32574 | -5.00106 | 33124 ft | 474 kts | 43° |
| 2026-05-04 19:44 | 45.35003 | -4.97017 | 33330 ft | 475 kts | 43° |
| 2026-05-04 19:44 | 45.37467 | -4.93880 | 33548 ft | 476 kts | 43° |
| 2026-05-04 19:44 | 45.39927 | -4.90733 | 33754 ft | 476 kts | 43° |
| 2026-05-04 19:44 | 45.42388 | -4.87578 | 33968 ft | 477 kts | 43° |
| 2026-05-04 19:45 | 45.44854 | -4.84417 | 34016 ft | 477 kts | 43° |
| 2026-05-04 19:45 | 45.49779 | -4.78102 | 34023 ft | 476 kts | 43° |
| 2026-05-04 19:46 | 45.54693 | -4.71791 | 34016 ft | 475 kts | 43° |
| 2026-05-04 19:46 | 45.59565 | -4.65504 | 34013 ft | 476 kts | 44° |
| 2026-05-04 19:47 | 45.64479 | -4.59144 | 34015 ft | 477 kts | 44° |
| 2026-05-04 19:47 | 45.69397 | -4.52771 | 34014 ft | 477 kts | 44° |
| 2026-05-04 19:48 | 45.74301 | -4.46395 | 34016 ft | 476 kts | 44° |
| 2026-05-04 19:48 | 45.79165 | -4.40048 | 34009 ft | 476 kts | 44° |
| 2026-05-04 19:49 | 45.84059 | -4.33661 | 34008 ft | 476 kts | 44° |
| 2026-05-04 19:49 | 45.88954 | -4.27267 | 34012 ft | 476 kts | 44° |
| 2026-05-04 19:50 | 45.93838 | -4.20872 | 34014 ft | 475 kts | 44° |
| 2026-05-04 19:50 | 45.98670 | -4.14506 | 34010 ft | 474 kts | 44° |
| 2026-05-04 19:51 | 46.03532 | -4.08084 | 34016 ft | 474 kts | 44° |
| 2026-05-04 19:51 | 46.08395 | -4.01654 | 34014 ft | 474 kts | 44° |
| 2026-05-04 19:52 | 46.13220 | -3.95275 | 34017 ft | 473 kts | 44° |
| 2026-05-04 19:52 | 46.18066 | -3.88853 | 34004 ft | 473 kts | 44° |
| 2026-05-04 19:53 | 46.22895 | -3.82418 | 34019 ft | 473 kts | 44° |
| 2026-05-04 19:53 | 46.27726 | -3.75961 | 34000 ft | 473 kts | 45° |
| 2026-05-04 19:54 | 46.32891 | -3.70082 | 34012 ft | 474 kts | 31° |
| 2026-05-04 19:54 | 46.38920 | -3.66401 | 34013 ft | 474 kts | 21° |
| 2026-05-04 19:55 | 46.45127 | -3.63145 | 34007 ft | 474 kts | 21° |
| 2026-05-04 19:55 | 46.51330 | -3.59846 | 34011 ft | 476 kts | 21° |
| 2026-05-04 19:56 | 46.56501 | -3.57087 | 34011 ft | 476 kts | 21° |
| 2026-05-04 19:56 | 46.63731 | -3.53250 | 34008 ft | 476 kts | 21° |
| 2026-05-04 19:57 | 46.69950 | -3.49935 | 34008 ft | 476 kts | 21° |
| 2026-05-04 19:57 | 46.75112 | -3.47170 | 34007 ft | 476 kts | 21° |
| 2026-05-04 19:58 | 46.81332 | -3.43831 | 34008 ft | 476 kts | 21° |
| 2026-05-04 19:58 | 46.88556 | -3.39956 | 34007 ft | 476 kts | 21° |
| 2026-05-04 19:59 | 46.94762 | -3.36615 | 34004 ft | 475 kts | 21° |
| 2026-05-04 19:59 | 46.99916 | -3.33832 | 34005 ft | 474 kts | 21° |
| 2026-05-04 20:00 | 47.06107 | -3.30479 | 34009 ft | 474 kts | 21° |
| 2026-05-04 20:00 | 47.13305 | -3.26566 | 34005 ft | 476 kts | 21° |
| 2026-05-04 20:01 | 47.18464 | -3.23762 | 34007 ft | 475 kts | 21° |
| 2026-05-04 20:01 | 47.24662 | -3.20393 | 34005 ft | 475 kts | 21° |
| 2026-05-04 20:02 | 47.30854 | -3.17010 | 34005 ft | 475 kts | 21° |
| 2026-05-04 20:02 | 47.37043 | -3.13612 | 34001 ft | 474 kts | 22° |
| 2026-05-04 20:03 | 47.43216 | -3.10212 | 34004 ft | 473 kts | 22° |
| 2026-05-04 20:03 | 47.49349 | -3.06834 | 34004 ft | 473 kts | 22° |
| 2026-05-04 20:04 | 47.55524 | -3.03430 | 34005 ft | 473 kts | 22° |
| 2026-05-04 20:04 | 47.61719 | -3.00006 | 34005 ft | 476 kts | 22° |
| 2026-05-04 20:05 | 47.67929 | -2.96565 | 34000 ft | 476 kts | 22° |
| 2026-05-04 20:05 | 47.74139 | -2.93109 | 33997 ft | 477 kts | 22° |
| 2026-05-04 20:06 | 47.80314 | -2.89663 | 33999 ft | 478 kts | 22° |
| 2026-05-04 20:06 | 47.86544 | -2.86186 | 34000 ft | 478 kts | 22° |
| 2026-05-04 20:07 | 47.92767 | -2.82699 | 34006 ft | 478 kts | 22° |
| 2026-05-04 20:07 | 47.98980 | -2.79196 | 33993 ft | 478 kts | 22° |
| 2026-05-04 20:08 | 48.05156 | -2.75714 | 34005 ft | 477 kts | 22° |
| 2026-05-04 20:08 | 48.11368 | -2.72208 | 33999 ft | 477 kts | 22° |
| 2026-05-04 20:09 | 48.17586 | -2.68700 | 33999 ft | 477 kts | 22° |
| 2026-05-04 20:09 | 48.23796 | -2.65182 | 34003 ft | 476 kts | 22° |
| 2026-05-04 20:10 | 48.29990 | -2.61660 | 34005 ft | 476 kts | 22° |
| 2026-05-04 20:10 | 48.36137 | -2.58138 | 34005 ft | 476 kts | 22° |
| 2026-05-04 20:11 | 48.42314 | -2.54495 | 33989 ft | 476 kts | 27° |
| 2026-05-04 20:11 | 48.47789 | -2.49064 | 34000 ft | 470 kts | 46° |
| 2026-05-04 20:12 | 48.52205 | -2.41877 | 34001 ft | 467 kts | 52° |
| 2026-05-04 20:12 | 48.56489 | -2.34595 | 33999 ft | 467 kts | 52° |
| 2026-05-04 20:13 | 48.60800 | -2.27255 | 34001 ft | 467 kts | 52° |
| 2026-05-04 20:13 | 48.65106 | -2.19908 | 34002 ft | 467 kts | 52° |
| 2026-05-04 20:14 | 48.69385 | -2.12586 | 34003 ft | 469 kts | 52° |
| 2026-05-04 20:14 | 48.73698 | -2.05176 | 34000 ft | 469 kts | 52° |
| 2026-05-04 20:15 | 48.78010 | -1.97745 | 33999 ft | 469 kts | 52° |
| 2026-05-04 20:15 | 48.82326 | -1.90311 | 34001 ft | 469 kts | 52° |
| 2026-05-04 20:16 | 48.86659 | -1.82896 | 33999 ft | 471 kts | 48° |
| 2026-05-04 20:16 | 48.89141 | -1.79715 | 34000 ft | 476 kts | 37° |
| 2026-05-04 20:16 | 48.92032 | -1.77265 | 33998 ft | 480 kts | 24° |
| 2026-05-04 20:16 | 48.95221 | -1.75734 | 33999 ft | 483 kts | 13° |
| 2026-05-04 20:17 | 48.98555 | -1.75018 | 33997 ft | 487 kts | 4° |
| 2026-05-04 20:17 | 49.05360 | -1.74699 | 34000 ft | 490 kts | 2° |
| 2026-05-04 20:18 | 49.12165 | -1.74392 | 34006 ft | 489 kts | 2° |
| 2026-05-04 20:18 | 49.18926 | -1.74121 | 34002 ft | 489 kts | 1° |
| 2026-05-04 20:19 | 49.25729 | -1.73870 | 34002 ft | 489 kts | 1° |
| 2026-05-04 20:19 | 49.32530 | -1.73612 | 34005 ft | 488 kts | 1° |
| 2026-05-04 20:20 | 49.39315 | -1.73356 | 34015 ft | 488 kts | 1° |
| 2026-05-04 20:20 | 49.46105 | -1.73090 | 34018 ft | 488 kts | 1° |
| 2026-05-04 20:21 | 49.52846 | -1.72837 | 34021 ft | 487 kts | 1° |
| 2026-05-04 20:21 | 49.62867 | -1.70903 | 34026 ft | 484 kts | 21° |
| 2026-05-04 20:22 | 49.69185 | -1.67301 | 34027 ft | 485 kts | 21° |
| 2026-05-04 20:22 | 49.72353 | -1.65538 | 33878 ft | 484 kts | 21° |
| 2026-05-04 20:22 | 49.75518 | -1.63786 | 33589 ft | 482 kts | 21° |
| 2026-05-04 20:23 | 49.78673 | -1.62050 | 33316 ft | 481 kts | 21° |
| 2026-05-04 20:23 | 49.81786 | -1.60339 | 33040 ft | 481 kts | 21° |
| 2026-05-04 20:23 | 49.84947 | -1.58598 | 32762 ft | 482 kts | 21° |
| 2026-05-04 20:23 | 49.88105 | -1.56848 | 31857 ft | 486 kts | 21° |
| 2026-05-04 20:24 | 49.91305 | -1.55067 | 31094 ft | 486 kts | 21° |
| 2026-05-04 20:24 | 49.94467 | -1.53302 | 30568 ft | 481 kts | 21° |
| 2026-05-04 20:24 | 49.97609 | -1.51549 | 29941 ft | 478 kts | 21° |
| 2026-05-04 20:24 | 50.00728 | -1.49819 | 29329 ft | 473 kts | 20° |
| 2026-05-04 20:25 | 50.03789 | -1.48213 | 28769 ft | 468 kts | 19° |
| 2026-05-04 20:25 | 50.06867 | -1.46699 | 28188 ft | 462 kts | 18° |
| 2026-05-04 20:25 | 50.09929 | -1.45257 | 27628 ft | 457 kts | 18° |
| 2026-05-04 20:25 | 50.12958 | -1.43848 | 27060 ft | 452 kts | 18° |
| 2026-05-04 20:26 | 50.15949 | -1.42439 | 26505 ft | 446 kts | 18° |
| 2026-05-04 20:26 | 50.18900 | -1.41016 | 25942 ft | 441 kts | 18° |
| 2026-05-04 20:26 | 50.21812 | -1.39588 | 25408 ft | 436 kts | 19° |
| 2026-05-04 20:26 | 50.24686 | -1.38163 | 24887 ft | 431 kts | 19° |
| 2026-05-04 20:27 | 50.27526 | -1.36752 | 24346 ft | 426 kts | 18° |
| 2026-05-04 20:27 | 50.30295 | -1.35378 | 23851 ft | 421 kts | 18° |
| 2026-05-04 20:27 | 50.33072 | -1.34005 | 23307 ft | 416 kts | 18° |
| 2026-05-04 20:27 | 50.35810 | -1.32651 | 22819 ft | 409 kts | 18° |
| 2026-05-04 20:28 | 50.38503 | -1.31314 | 22350 ft | 403 kts | 19° |
| 2026-05-04 20:28 | 50.41153 | -1.29995 | 21890 ft | 396 kts | 19° |
| 2026-05-04 20:28 | 50.43762 | -1.28702 | 21422 ft | 390 kts | 19° |
| 2026-05-04 20:28 | 50.46327 | -1.27432 | 20976 ft | 385 kts | 19° |
| 2026-05-04 20:29 | 50.48840 | -1.26082 | 20524 ft | 378 kts | 25° |
| 2026-05-04 20:29 | 50.51128 | -1.24161 | 20069 ft | 370 kts | 36° |
| 2026-05-04 20:29 | 50.53114 | -1.21741 | 19625 ft | 363 kts | 42° |
| 2026-05-04 20:29 | 50.55039 | -1.19207 | 19167 ft | 359 kts | 42° |
| 2026-05-04 20:30 | 50.56942 | -1.16705 | 18710 ft | 355 kts | 42° |
| 2026-05-04 20:30 | 50.58825 | -1.14229 | 18248 ft | 351 kts | 42° |
| 2026-05-04 20:30 | 50.60687 | -1.11777 | 17752 ft | 347 kts | 42° |
| 2026-05-04 20:30 | 50.62522 | -1.09360 | 17296 ft | 341 kts | 41° |
| 2026-05-04 20:31 | 50.64333 | -1.06978 | 16840 ft | 337 kts | 41° |
| 2026-05-04 20:31 | 50.66062 | -1.04530 | 16396 ft | 332 kts | 48° |
| 2026-05-04 20:31 | 50.67516 | -1.01794 | 15959 ft | 330 kts | 52° |
| 2026-05-04 20:31 | 50.68957 | -0.98997 | 15514 ft | 328 kts | 51° |